createdAt,value
2022-08-28T00:01:34.478Z,100.00
2022-08-28T00:04:02.475Z,100.00
2022-08-28T00:06:30.328Z,100.00
2022-08-28T00:08:59.009Z,100.00
2022-08-28T00:11:28.160Z,100.00
2022-08-28T00:13:56.796Z,100.00
2022-08-28T00:16:24.867Z,100.00
2022-08-28T00:18:54.444Z,100.00
2022-08-28T00:21:22.267Z,100.00
2022-08-28T00:23:50.097Z,100.00
2022-08-28T00:26:43.912Z,100.00
2022-08-28T00:29:12.161Z,100.00
2022-08-28T00:31:40.424Z,100.00
2022-08-28T00:34:09.192Z,100.00
2022-08-28T00:36:38.616Z,100.00
2022-08-28T00:39:07.748Z,100.00
2022-08-28T00:41:38.833Z,100.00
2022-08-28T00:44:17.307Z,100.00
2022-08-28T00:46:47.659Z,100.00
2022-08-28T00:49:17.771Z,100.00
2022-08-28T00:52:08.580Z,100.00
2022-08-28T00:54:54.438Z,100.00
2022-08-28T00:57:31.587Z,100.00
2022-08-28T01:00:01.606Z,100.00
2022-08-28T01:02:29.740Z,100.00
2022-08-28T01:04:57.684Z,100.00
2022-08-28T01:07:25.679Z,100.00
2022-08-28T01:09:55.680Z,100.00
2022-08-28T01:12:25.960Z,100.00
2022-08-28T01:15:00.104Z,100.00
2022-08-28T01:17:34.179Z,100.00
2022-08-28T01:20:06.768Z,100.00
2022-08-28T01:22:38.009Z,100.00
2022-08-28T01:25:13.258Z,100.00
2022-08-28T01:27:42.414Z,100.00
2022-08-28T01:30:12.475Z,100.00
2022-08-28T01:32:43.017Z,100.00
2022-08-28T01:35:14.881Z,100.00
2022-08-28T01:37:43.730Z,100.00
2022-08-28T01:40:17.701Z,100.00
2022-08-28T01:42:46.000Z,100.00
2022-08-28T01:45:17.778Z,100.00
2022-08-28T01:47:46.589Z,100.00
2022-08-28T01:50:18.152Z,100.00
2022-08-28T01:52:46.013Z,100.00
2022-08-28T01:55:15.301Z,100.00
2022-08-28T01:57:51.418Z,100.00
2022-08-28T02:00:20.275Z,100.00
2022-08-28T02:02:48.622Z,100.00
2022-08-28T02:05:16.426Z,100.00
2022-08-28T02:07:44.895Z,100.00
2022-08-28T02:10:12.935Z,100.00
2022-08-28T02:12:43.326Z,100.00
2022-08-28T02:15:11.914Z,100.00
2022-08-28T02:17:39.890Z,100.00
2022-08-28T02:20:09.376Z,100.00
2022-08-28T02:22:37.569Z,100.00
2022-08-28T02:25:07.304Z,100.00
2022-08-28T02:27:35.658Z,100.00
2022-08-28T02:30:05.797Z,100.00
2022-08-28T02:32:33.689Z,100.00
2022-08-28T02:35:01.895Z,100.00
2022-08-28T02:37:29.773Z,100.00
2022-08-28T02:39:59.129Z,100.00
2022-08-28T02:42:28.535Z,100.00
2022-08-28T02:44:56.333Z,100.00
2022-08-28T02:47:25.984Z,100.00
2022-08-28T02:49:53.810Z,100.00
2022-08-28T02:52:22.480Z,100.00
2022-08-28T02:54:50.359Z,100.00
2022-08-28T02:57:18.177Z,100.00
2022-08-28T02:59:47.743Z,100.00
2022-08-28T03:02:15.590Z,100.00
2022-08-28T03:04:44.794Z,100.00
2022-08-28T03:07:13.729Z,100.00
2022-08-28T03:09:43.628Z,100.00
2022-08-28T03:12:13.223Z,100.00
2022-08-28T03:14:42.436Z,100.00
2022-08-28T03:17:10.391Z,100.00
2022-08-28T03:19:38.246Z,100.00
2022-08-28T03:22:07.410Z,100.00
2022-08-28T03:24:34.242Z,100.00
2022-08-28T03:27:02.060Z,100.00
2022-08-28T03:29:29.944Z,100.00
2022-08-28T03:31:58.171Z,100.00
2022-08-28T03:34:25.947Z,100.00
2022-08-28T03:36:53.798Z,100.00
2022-08-28T03:39:23.107Z,100.00
2022-08-28T03:41:51.562Z,100.00
2022-08-28T03:44:19.371Z,100.00
2022-08-28T03:46:47.157Z,100.00
2022-08-28T03:49:15.185Z,100.00
2022-08-28T03:51:45.034Z,100.00
2022-08-28T03:54:12.864Z,100.00
2022-08-28T03:56:43.293Z,100.00
2022-08-28T03:59:10.976Z,100.00
2022-08-28T04:01:39.017Z,100.00
2022-08-28T04:04:07.121Z,100.00
2022-08-28T04:06:36.171Z,100.00
2022-08-28T04:09:04.553Z,100.00
2022-08-28T04:11:32.789Z,100.00
2022-08-28T04:14:01.954Z,100.00
2022-08-28T04:16:29.913Z,100.00
2022-08-28T04:18:59.391Z,100.00
2022-08-28T04:21:28.054Z,100.00
2022-08-28T04:23:56.567Z,100.00
2022-08-28T04:26:26.506Z,100.00
2022-08-28T04:28:55.983Z,100.00
2022-08-28T04:31:32.290Z,100.00
2022-08-28T04:34:01.450Z,100.00
2022-08-28T04:36:30.104Z,100.00
2022-08-28T04:38:58.549Z,100.00
2022-08-28T04:41:27.638Z,100.00
2022-08-28T04:43:57.630Z,100.00
2022-08-28T04:46:30.931Z,100.00
2022-08-28T04:48:59.483Z,100.00
2022-08-28T04:51:27.729Z,100.00
2022-08-28T04:53:55.524Z,100.00
2022-08-28T04:56:23.349Z,100.00
2022-08-28T04:58:51.255Z,100.00
2022-08-28T05:01:21.907Z,100.00
2022-08-28T05:03:55.193Z,100.00
2022-08-28T05:06:23.125Z,100.00
2022-08-28T05:08:51.064Z,100.00
2022-08-28T05:11:24.571Z,100.00
2022-08-28T05:14:03.662Z,100.00
2022-08-28T05:16:31.493Z,100.00
2022-08-28T05:19:02.261Z,100.00
2022-08-28T05:21:30.167Z,100.00
2022-08-28T05:23:59.198Z,100.00
2022-08-28T05:26:29.709Z,100.00
2022-08-28T05:28:59.486Z,100.00
2022-08-28T05:31:29.165Z,100.00
2022-08-28T05:33:57.117Z,100.00
2022-08-28T05:36:32.361Z,100.00
2022-08-28T05:39:02.166Z,100.00
2022-08-28T05:41:31.567Z,100.00
2022-08-28T05:44:00.712Z,100.00
2022-08-28T05:46:29.424Z,100.00
2022-08-28T05:48:59.609Z,100.00
2022-08-28T05:51:29.356Z,100.00
2022-08-28T05:53:58.350Z,100.00
2022-08-28T05:56:29.599Z,100.00
2022-08-28T05:58:57.697Z,100.00
2022-08-28T06:01:28.556Z,100.00
2022-08-28T06:03:58.938Z,100.00
2022-08-28T06:06:29.995Z,100.00
2022-08-28T06:08:59.328Z,100.00
2022-08-28T06:11:30.433Z,100.00
2022-08-28T06:13:59.637Z,100.00
2022-08-28T06:16:29.581Z,99.88
2022-08-28T06:18:57.799Z,99.55
2022-08-28T06:21:26.076Z,98.73
2022-08-28T06:23:55.280Z,97.85
2022-08-28T06:26:23.366Z,96.73
2022-08-28T06:28:51.276Z,97.53
2022-08-28T06:31:24.301Z,98.40
2022-08-28T06:33:54.558Z,97.46
2022-08-28T06:36:22.895Z,95.91
2022-08-28T06:38:51.118Z,95.92
2022-08-28T06:41:20.377Z,96.09
2022-08-28T06:43:48.971Z,95.20
2022-08-28T06:46:19.379Z,94.19
2022-08-28T06:48:47.067Z,94.81
2022-08-28T06:51:15.214Z,94.52
2022-08-28T06:53:45.132Z,93.70
2022-08-28T06:56:18.396Z,95.06
2022-08-28T06:58:58.705Z,93.85
2022-08-28T07:01:30.111Z,93.54
2022-08-28T07:04:02.278Z,94.53
2022-08-28T07:06:34.088Z,92.25
2022-08-28T07:09:02.296Z,92.78
2022-08-28T07:11:32.590Z,92.67
2022-08-28T07:14:02.176Z,92.25
2022-08-28T07:16:32.947Z,91.24
2022-08-28T07:19:03.704Z,91.40
2022-08-28T07:21:32.677Z,90.95
2022-08-28T07:24:05.524Z,90.48
2022-08-28T07:26:33.593Z,89.91
2022-08-28T07:29:10.934Z,89.92
2022-08-28T07:31:41.199Z,88.97
2022-08-28T07:34:10.590Z,88.89
2022-08-28T07:36:38.886Z,89.16
2022-08-28T07:39:07.476Z,89.35
2022-08-28T07:41:39.097Z,88.66
2022-08-28T07:44:28.740Z,87.99
2022-08-28T07:46:57.959Z,88.55
2022-08-28T07:49:26.458Z,88.52
2022-08-28T07:51:54.643Z,89.03
2022-08-28T07:54:23.076Z,85.62
2022-08-28T07:56:52.638Z,87.10
2022-08-28T07:59:22.099Z,86.26
2022-08-28T08:01:51.854Z,85.47
2022-08-28T08:04:21.041Z,85.19
2022-08-28T08:06:50.073Z,86.09
2022-08-28T08:09:22.222Z,84.63
2022-08-28T08:11:50.367Z,85.08
2022-08-28T08:14:19.157Z,84.69
2022-08-28T08:16:49.267Z,85.23
2022-08-28T08:19:19.068Z,83.64
2022-08-28T08:21:53.214Z,84.90
2022-08-28T08:24:26.065Z,84.43
2022-08-28T08:26:59.484Z,82.77
2022-08-28T08:29:29.763Z,81.58
2022-08-28T08:32:04.920Z,83.30
2022-08-28T08:34:33.428Z,82.29
2022-08-28T08:37:01.636Z,80.98
2022-08-28T08:39:31.787Z,80.79
2022-08-28T08:42:05.704Z,79.82
2022-08-28T08:44:40.367Z,80.83
2022-08-28T08:47:15.170Z,79.85
2022-08-28T08:49:50.356Z,82.18
2022-08-28T08:52:35.094Z,81.16
2022-08-28T08:55:07.694Z,79.51
2022-08-28T09:02:57.549Z,75.84
2022-08-28T09:06:30.363Z,75.25
2022-08-28T09:09:20.466Z,76.87
2022-08-28T09:11:57.026Z,76.84
2022-08-28T09:14:37.210Z,78.06
2022-08-28T09:17:06.880Z,77.16
2022-08-28T09:19:36.717Z,77.76
2022-08-28T09:22:04.665Z,78.32
2022-08-28T09:24:36.849Z,76.23
2022-08-28T09:27:11.087Z,77.37
2022-08-28T09:29:43.583Z,76.80
2022-08-28T09:32:23.270Z,74.90
2022-08-28T09:35:07.709Z,73.13
2022-08-28T09:37:37.343Z,72.22
2022-08-28T09:40:25.311Z,74.09
2022-08-28T09:43:23.939Z,72.53
2022-08-28T09:45:59.262Z,73.24
2022-08-28T09:48:34.631Z,74.91
2022-08-28T09:51:06.213Z,73.92
2022-08-28T09:53:37.571Z,76.25
2022-08-28T09:56:12.754Z,72.42
2022-08-28T09:58:44.491Z,72.85
2022-08-28T10:01:27.542Z,72.17
2022-08-28T10:04:09.826Z,69.68
2022-08-28T10:06:40.064Z,72.71
2022-08-28T10:09:23.870Z,72.90
2022-08-28T10:11:59.033Z,73.11
2022-08-28T10:14:41.262Z,71.98
2022-08-28T10:17:18.910Z,69.77
2022-08-28T10:19:59.326Z,69.11
2022-08-28T10:22:40.814Z,68.31
2022-08-28T10:25:20.978Z,68.05
2022-08-28T10:27:53.890Z,68.94
2022-08-28T10:30:24.272Z,69.58
2022-08-28T10:33:09.965Z,69.48
2022-08-28T10:35:50.699Z,69.93
2022-08-28T10:38:32.009Z,70.47
2022-08-28T10:41:04.150Z,70.43
2022-08-28T10:43:36.665Z,66.06
2022-08-28T10:46:11.458Z,63.46
2022-08-28T10:48:47.525Z,62.76
2022-08-28T10:51:34.943Z,64.18
2022-08-28T10:54:09.431Z,66.05
2022-08-28T10:56:42.020Z,65.94
2022-08-28T10:59:09.843Z,66.02
2022-08-28T11:01:41.416Z,66.00
2022-08-28T11:04:23.544Z,65.15
2022-08-28T11:06:56.845Z,62.97
2022-08-28T11:09:34.060Z,64.78
2022-08-28T11:12:03.955Z,65.98
2022-08-28T11:14:35.584Z,66.27
2022-08-28T11:17:40.942Z,65.61
2022-08-28T11:20:15.341Z,65.88
2022-08-28T11:22:48.049Z,63.75
2022-08-28T11:25:26.543Z,62.83
2022-08-28T11:28:16.239Z,61.89
2022-08-28T11:30:45.810Z,64.62
2022-08-28T11:33:37.710Z,64.43
2022-08-28T11:36:09.896Z,62.20
2022-08-28T11:39:04.592Z,64.10
2022-08-28T11:41:36.381Z,64.62
2022-08-28T11:44:28.256Z,62.63
2022-08-28T11:47:52.096Z,62.11
2022-08-28T11:50:24.953Z,60.15
2022-08-28T11:53:13.632Z,58.76
2022-08-28T11:56:10.427Z,58.90
2022-08-28T11:58:48.792Z,58.36
2022-08-28T12:01:28.444Z,59.00
2022-08-28T12:03:59.433Z,58.11
2022-08-28T12:06:47.937Z,56.25
2022-08-28T12:09:38.402Z,57.63
2022-08-28T12:12:09.698Z,58.88
2022-08-28T12:15:10.392Z,58.77
2022-08-28T12:17:50.449Z,57.71
2022-08-28T12:20:30.997Z,57.51
2022-08-28T12:23:00.650Z,58.38
2022-08-28T12:25:36.245Z,58.93
2022-08-28T12:28:16.701Z,57.61
2022-08-28T12:30:55.275Z,55.72
2022-08-28T12:33:33.014Z,55.70
2022-08-28T12:36:03.706Z,54.83
2022-08-28T12:38:33.889Z,54.72
2022-08-28T12:41:03.852Z,54.62
2022-08-28T12:43:40.919Z,56.06
2022-08-28T12:46:28.076Z,56.90
2022-08-28T12:48:58.661Z,57.92
2022-08-28T12:51:28.288Z,55.19
2022-08-28T12:53:58.575Z,55.19
2022-08-28T12:56:30.032Z,55.48
2022-08-28T12:59:27.106Z,54.86
2022-08-28T13:02:03.555Z,53.92
2022-08-28T13:04:35.587Z,53.27
2022-08-28T13:07:10.529Z,55.06
2022-08-28T13:09:44.034Z,55.42
2022-08-28T13:12:20.762Z,54.63
2022-08-28T13:14:50.834Z,54.50
2022-08-28T13:17:39.759Z,53.85
2022-08-28T13:20:08.883Z,53.19
2022-08-28T13:22:41.673Z,55.52
2022-08-28T13:25:22.636Z,55.26
2022-08-28T13:27:58.134Z,56.92
2022-08-28T13:30:29.664Z,56.78
2022-08-28T13:33:01.654Z,58.10
2022-08-28T13:35:40.462Z,57.54
2022-08-28T13:38:12.451Z,55.98
2022-08-28T13:40:58.055Z,57.34
2022-08-28T13:43:28.352Z,57.18
2022-08-28T13:45:56.166Z,56.38
2022-08-28T13:48:28.339Z,57.24
2022-08-28T13:51:05.194Z,57.98
2022-08-28T13:53:38.528Z,59.62
2022-08-28T13:56:06.797Z,58.34
2022-08-28T13:58:34.780Z,56.35
2022-08-28T14:01:03.131Z,57.70
2022-08-28T14:03:38.351Z,57.59
2022-08-28T14:06:09.221Z,57.11
2022-08-28T14:08:37.062Z,56.26
2022-08-28T14:11:04.982Z,57.52
2022-08-28T14:13:32.756Z,57.87
2022-08-28T14:16:00.653Z,58.05
2022-08-28T14:18:28.992Z,57.06
2022-08-28T14:20:58.106Z,56.94
2022-08-28T14:23:25.917Z,57.77
2022-08-28T14:25:53.740Z,56.62
2022-08-28T14:28:21.592Z,57.83
2022-08-28T14:30:51.380Z,58.86
2022-08-28T14:33:20.705Z,57.68
2022-08-28T14:35:49.862Z,56.72
2022-08-28T14:38:19.084Z,57.84
2022-08-28T14:40:46.898Z,59.19
2022-08-28T14:43:15.730Z,58.65
2022-08-28T14:45:45.614Z,57.77
2022-08-28T14:48:14.385Z,57.01
2022-08-28T14:50:43.152Z,58.89
2022-08-28T14:53:11.581Z,58.22
2022-08-28T14:55:42.132Z,57.63
2022-08-28T14:58:09.940Z,57.89
2022-08-28T15:00:42.137Z,57.63
2022-08-28T15:03:10.725Z,57.53
2022-08-28T15:05:39.253Z,57.66
2022-08-28T15:08:08.349Z,56.49
2022-08-28T15:10:38.462Z,56.35
2022-08-28T15:13:09.162Z,55.69
2022-08-28T15:15:39.287Z,54.58
2022-08-28T15:18:07.979Z,54.26
2022-08-28T15:20:39.529Z,55.06
2022-08-28T15:23:07.370Z,53.21
2022-08-28T15:25:35.469Z,55.45
2022-08-28T15:28:03.778Z,54.13
2022-08-28T15:30:33.356Z,54.85
2022-08-28T15:33:01.159Z,52.02
2022-08-28T15:35:29.118Z,54.54
2022-08-28T15:37:57.152Z,54.03
2022-08-28T15:40:43.316Z,53.74
2022-08-28T15:43:12.156Z,54.00
2022-08-28T15:45:43.209Z,54.52
2022-08-28T15:48:13.409Z,53.26
2022-08-28T15:50:42.863Z,54.00
2022-08-28T15:53:13.095Z,55.18
2022-08-28T15:55:42.373Z,53.42
2022-08-28T15:58:14.195Z,53.72
2022-08-28T16:00:45.291Z,55.14
2022-08-28T16:03:14.328Z,55.24
2022-08-28T16:05:43.159Z,54.75
2022-08-28T16:08:13.453Z,55.01
2022-08-28T16:10:42.382Z,56.06
2022-08-28T16:13:12.426Z,55.23
2022-08-28T16:15:41.245Z,54.45
2022-08-28T16:18:13.093Z,55.34
2022-08-28T16:20:45.355Z,56.21
2022-08-28T16:23:14.863Z,56.73
2022-08-28T16:25:43.528Z,56.99
2022-08-28T16:28:15.203Z,57.13
2022-08-28T16:30:46.013Z,57.49
2022-08-28T16:33:20.312Z,57.98
2022-08-28T16:35:56.274Z,58.62
2022-08-28T16:38:26.173Z,58.23
2022-08-28T16:40:54.112Z,59.10
2022-08-28T16:43:21.908Z,60.84
2022-08-28T16:45:50.994Z,59.46
2022-08-28T16:48:20.464Z,59.16
2022-08-28T16:50:48.302Z,58.87
2022-08-28T16:53:17.063Z,60.63
2022-08-28T16:55:54.994Z,60.62
2022-08-28T16:58:23.155Z,60.36
2022-08-28T17:00:52.828Z,61.31
2022-08-28T17:03:26.482Z,60.13
2022-08-28T17:05:56.759Z,59.67
2022-08-28T17:08:24.671Z,60.70
2022-08-28T17:10:52.741Z,61.57
2022-08-28T17:13:20.555Z,62.34
2022-08-28T17:15:48.430Z,60.79
2022-08-28T17:18:16.301Z,62.07
2022-08-28T17:21:02.893Z,61.30
2022-08-28T17:23:31.189Z,60.48
2022-08-28T17:26:08.696Z,59.83
2022-08-28T17:28:36.674Z,62.85
2022-08-28T17:31:04.593Z,62.58
2022-08-28T17:33:32.511Z,63.45
2022-08-28T17:36:01.710Z,63.27
2022-08-28T17:38:30.126Z,62.71
2022-08-28T17:40:58.379Z,64.04
2022-08-28T17:43:26.192Z,64.23
2022-08-28T17:45:54.013Z,64.90
2022-08-28T17:48:21.751Z,66.48
2022-08-28T17:50:49.576Z,66.18
2022-08-28T17:53:18.802Z,66.54
2022-08-28T17:55:47.062Z,67.52
2022-08-28T17:58:15.006Z,67.93
2022-08-28T18:00:43.892Z,67.79
2022-08-28T18:03:11.777Z,68.68
2022-08-28T18:05:41.163Z,69.78
2022-08-28T18:08:09.509Z,68.68
2022-08-28T18:10:38.908Z,69.57
2022-08-28T18:13:07.390Z,69.94
2022-08-28T18:15:36.858Z,70.07
2022-08-28T18:18:06.780Z,69.05
2022-08-28T18:20:37.912Z,69.60
2022-08-28T18:23:06.076Z,70.04
2022-08-28T18:25:51.007Z,70.31
2022-08-28T18:28:22.739Z,70.95
2022-08-28T18:30:52.746Z,71.15
2022-08-28T18:33:23.172Z,70.91
2022-08-28T18:35:53.722Z,70.76
2022-08-28T18:38:28.790Z,70.51
2022-08-28T18:40:57.366Z,69.65
2022-08-28T18:43:26.788Z,69.86
2022-08-28T18:45:55.209Z,69.90
2022-08-28T18:48:24.267Z,69.75
2022-08-28T18:50:52.452Z,70.88
2022-08-28T18:53:22.726Z,72.48
2022-08-28T18:55:51.154Z,71.92
2022-08-28T18:58:22.276Z,72.31
2022-08-28T19:00:52.693Z,73.99
2022-08-28T19:03:24.220Z,74.00
2022-08-28T19:05:52.177Z,74.76
2022-08-28T19:08:20.132Z,75.04
2022-08-28T19:10:48.163Z,73.82
2022-08-28T19:13:16.079Z,75.09
2022-08-28T19:15:44.042Z,75.13
2022-08-28T19:18:13.521Z,73.22
2022-08-28T19:20:41.503Z,72.46
2022-08-28T19:23:09.314Z,71.27
2022-08-28T19:25:37.205Z,70.52
2022-08-28T19:28:05.201Z,69.25
2022-08-28T19:30:35.724Z,69.26
2022-08-28T19:33:05.491Z,71.25
2022-08-28T19:35:35.903Z,69.60
2022-08-28T19:38:03.603Z,68.70
2022-08-28T19:40:31.728Z,69.00
2022-08-28T19:43:00.891Z,69.69
2022-08-28T19:45:30.216Z,69.33
2022-08-28T19:47:58.754Z,69.75
2022-08-28T19:50:27.190Z,71.59
2022-08-28T19:52:56.382Z,70.85
2022-08-28T19:55:26.055Z,71.20
2022-08-28T19:57:54.800Z,71.53
2022-08-28T20:00:24.817Z,71.57
2022-08-28T20:02:53.436Z,71.68
2022-08-28T20:05:22.501Z,72.45
2022-08-28T20:07:51.456Z,72.26
2022-08-28T20:10:21.374Z,72.54
2022-08-28T20:12:49.373Z,72.17
2022-08-28T20:15:19.647Z,73.07
2022-08-28T20:17:50.195Z,73.08
2022-08-28T20:20:18.868Z,73.99
2022-08-28T20:22:46.723Z,73.13
2022-08-28T20:25:18.184Z,73.32
2022-08-28T20:27:47.216Z,73.18
2022-08-28T20:30:15.298Z,74.38
2022-08-28T20:32:43.377Z,73.62
2022-08-28T20:35:13.198Z,73.89
2022-08-28T20:37:44.951Z,74.32
2022-08-28T20:40:15.911Z,75.13
2022-08-28T20:42:44.026Z,76.23
2022-08-28T20:45:15.082Z,76.75
2022-08-28T20:47:42.964Z,76.77
2022-08-28T20:50:11.745Z,77.38
2022-08-28T20:52:40.016Z,77.39
2022-08-28T20:55:09.247Z,77.52
2022-08-28T20:57:37.571Z,78.21
2022-08-28T21:00:06.497Z,76.95
2022-08-28T21:02:35.989Z,77.01
2022-08-28T21:05:04.927Z,76.73
2022-08-28T21:07:33.790Z,77.21
2022-08-28T21:10:05.478Z,78.48
2022-08-28T21:12:35.916Z,78.16
2022-08-28T21:15:04.465Z,78.22
2022-08-28T21:17:32.301Z,78.66
2022-08-28T21:20:04.391Z,76.74
2022-08-28T21:22:32.963Z,78.35
2022-08-28T21:25:04.184Z,77.93
2022-08-28T21:27:32.797Z,77.48
2022-08-28T21:30:01.531Z,78.44
2022-08-28T21:32:30.516Z,78.53
2022-08-28T21:35:00.699Z,78.93
2022-08-28T21:37:31.124Z,78.27
2022-08-28T21:39:59.460Z,78.52
2022-08-28T21:42:27.851Z,79.92
2022-08-28T21:44:55.669Z,80.17
2022-08-28T21:47:24.639Z,80.16
2022-08-28T21:49:53.287Z,79.55
2022-08-28T21:52:22.534Z,79.29
2022-08-28T21:54:56.861Z,79.67
2022-08-28T21:57:24.715Z,80.65
2022-08-28T21:59:52.535Z,81.55
2022-08-28T22:02:20.739Z,81.86
2022-08-28T22:04:49.300Z,81.89
2022-08-28T22:07:17.434Z,82.49
2022-08-28T22:09:45.264Z,83.07
2022-08-28T22:12:14.526Z,82.24
2022-08-28T22:14:42.366Z,80.94
2022-08-28T22:17:11.537Z,80.71
2022-08-28T22:19:40.523Z,81.25
2022-08-28T22:22:37.477Z,81.88
2022-08-28T22:25:06.145Z,81.50
2022-08-28T22:27:35.550Z,82.70
2022-08-28T22:30:03.542Z,82.94
2022-08-28T22:32:31.358Z,82.17
2022-08-28T22:34:59.166Z,82.58
2022-08-28T22:37:26.947Z,82.43
2022-08-28T22:39:54.785Z,82.24
2022-08-28T22:42:23.052Z,81.35
2022-08-28T22:44:52.200Z,80.52
2022-08-28T22:47:20.073Z,81.28
2022-08-28T22:49:47.966Z,80.07
2022-08-28T22:52:16.384Z,78.77
2022-08-28T22:54:44.274Z,79.60
2022-08-28T22:57:12.125Z,80.51
2022-08-28T22:59:39.942Z,81.65
2022-08-28T23:02:09.174Z,80.70
2022-08-28T23:04:37.281Z,80.54
2022-08-28T23:07:05.625Z,79.77
2022-08-28T23:09:36.022Z,81.80
2022-08-28T23:12:04.107Z,80.82
2022-08-28T23:14:32.004Z,81.21
2022-08-28T23:17:00.018Z,80.92
2022-08-28T23:19:30.481Z,80.87
2022-08-28T23:21:58.295Z,82.14
2022-08-28T23:24:26.464Z,81.93
2022-08-28T23:26:54.228Z,83.36
2022-08-28T23:29:22.032Z,83.12
2022-08-28T23:31:50.107Z,83.60
2022-08-28T23:34:17.944Z,84.02
2022-08-28T23:36:47.076Z,84.09
2022-08-28T23:39:15.217Z,84.32
2022-08-28T23:41:43.350Z,85.00
2022-08-28T23:44:11.245Z,85.65
2022-08-28T23:46:41.338Z,86.29
2022-08-28T23:49:11.020Z,86.16
2022-08-28T23:51:38.965Z,84.94
2022-08-28T23:54:09.099Z,85.07
2022-08-28T23:56:37.942Z,85.19
2022-08-28T23:59:06.979Z,85.17
